Time;durP1;ratioP1;P1;durP2;ratioP2;P2;SDS_P1;SDS_P2;PMS_P1;PMS_P2;Temp;Humidity;BMP_temperature;BMP_pressure;BME280_temperature;BME280_humidity;BME280_pressure;Samples;Min_cycle;Max_cycle;Signal;HPM_P1;HPM_P2
2022/04/14 00:00:53;;;;;;;26.80;16.10;;;;;;;5.53;50.11;100730.15;128024;1290;100555;-76
2022/04/14 00:03:56;;;;;;;26.50;16.10;;;;;;;5.49;50.13;100732.67;128079;1290;100731;-76
2022/04/14 00:06:59;;;;;;;27.70;15.60;;;;;;;5.44;50.33;100737.61;127843;1289;100532;-76
2022/04/14 00:10:02;;;;;;;28.80;16.50;;;;;;;5.39;50.45;100737.11;127881;1290;99446;-76
2022/04/14 00:13:05;;;;;;;24.80;15.10;;;;;;;5.35;50.47;100737.02;127891;1290;99398;-76
2022/04/14 00:16:08;;;;;;;25.90;15.70;;;;;;;5.33;50.37;100737.49;127973;1290;100538;-75
2022/04/14 00:19:10;;;;;;;25.90;16.80;;;;;;;5.27;50.65;100737.21;128196;1290;99370;-75
2022/04/14 00:22:13;;;;;;;29.60;17.00;;;;;;;5.23;50.81;100732.02;128150;1290;99395;-76
2022/04/14 00:25:16;;;;;;;28.70;17.00;;;;;;;5.20;50.79;100730.13;127973;1289;155606;-75
2022/04/14 00:28:18;;;;;;;26.50;16.70;;;;;;;5.15;50.86;100729.27;127886;1290;99486;-75
2022/04/14 00:31:21;;;;;;;26.60;17.00;;;;;;;5.07;50.81;100728.02;128246;1290;100537;-75
2022/04/14 00:34:24;;;;;;;28.90;16.70;;;;;;;4.99;50.96;100731.19;128168;1290;113658;-75
2022/04/14 00:37:27;;;;;;;28.20;16.60;;;;;;;4.93;51.22;100726.48;127918;1289;99437;-75
2022/04/14 00:40:29;;;;;;;25.60;15.70;;;;;;;4.88;51.19;100727.73;127878;1290;100496;-73
2022/04/14 00:43:34;;;;;;;22.00;14.50;;;;;;;4.83;51.28;100727.20;127943;1290;99469;-72
2022/04/14 00:46:37;;;;;;;22.70;14.10;;;;;;;4.78;51.35;100724.05;128043;1290;113761;-74
2022/04/14 00:49:40;;;;;;;30.90;19.20;;;;;;;4.71;51.58;100728.32;128281;1290;99328;-76
2022/04/14 00:52:45;;;;;;;33.70;20.10;;;;;;;4.65;51.65;100728.38;128154;1289;114576;-74
2022/04/14 00:55:48;;;;;;;24.00;15.00;;;;;;;4.60;51.69;100725.05;128167;1290;113718;-74
2022/04/14 00:58:51;;;;;;;24.70;15.30;;;;;;;4.51;51.85;100724.91;128143;1290;113531;-74
2022/04/14 01:01:54;;;;;;;26.80;15.40;;;;;;;4.45;51.95;100723.39;127890;1290;99354;-75
2022/04/14 01:04:57;;;;;;;28.10;15.60;;;;;;;4.42;52.14;100721.00;127971;1290;113610;-75
2022/04/14 01:08:01;;;;;;;26.20;15.20;;;;;;;4.38;52.15;100718.62;128008;1290;113722;-75
2022/04/14 01:11:04;;;;;;;25.80;16.00;;;;;;;4.36;52.27;100721.91;127933;1290;112390;-75
2022/04/14 01:14:06;;;;;;;26.40;16.50;;;;;;;4.33;52.26;100727.70;128160;1290;99839;-75
2022/04/14 01:17:10;;;;;;;27.80;15.90;;;;;;;4.29;52.35;100723.05;128048;1290;100547;-75
2022/04/14 01:20:13;;;;;;;27.50;16.00;;;;;;;4.27;52.33;100721.57;128172;1290;113857;-75
2022/04/14 01:23:19;;;;;;;27.40;15.80;;;;;;;4.24;52.36;100718.95;127987;1290;113413;-76
2022/04/14 01:26:22;;;;;;;28.40;17.00;;;;;;;4.20;52.52;100719.79;128062;1290;113592;-76
2022/04/14 01:29:26;;;;;;;28.60;16.60;;;;;;;4.16;52.77;100713.18;127727;1290;99402;-76
2022/04/14 01:32:29;;;;;;;25.70;15.20;;;;;;;4.11;52.84;100707.98;127947;1290;113514;-75
2022/04/14 01:35:31;;;;;;;26.10;15.80;;;;;;;4.06;52.96;100700.79;128028;1290;99466;-78
2022/04/14 01:38:34;;;;;;;27.70;15.60;;;;;;;4.05;52.93;100707.70;127804;1290;99436;-78
2022/04/14 01:41:38;;;;;;;26.80;16.10;;;;;;;4.03;52.89;100708.19;128022;1289;99453;-77
2022/04/14 01:44:41;;;;;;;26.20;16.10;;;;;;;3.99;53.03;100707.55;128044;1288;99390;-75
2022/04/14 01:47:45;;;;;;;25.20;15.60;;;;;;;3.96;53.05;100704.08;128296;1288;99363;-76
2022/04/14 01:50:47;;;;;;;29.30;16.60;;;;;;;3.94;53.05;100698.58;128006;1289;113900;-74
2022/04/14 01:53:50;;;;;;;27.80;15.80;;;;;;;3.92;53.19;100701.45;128201;1288;100432;-77
2022/04/14 01:56:53;;;;;;;27.30;16.80;;;;;;;3.90;53.36;100705.84;128113;1288;99468;-76
2022/04/14 01:59:55;;;;;;;29.10;16.40;;;;;;;3.89;53.40;100700.83;128208;1288;99337;-76
2022/04/14 02:02:58;;;;;;;28.50;16.40;;;;;;;3.89;53.42;100701.14;128047;1289;99385;-78
2022/04/14 02:06:00;;;;;;;26.40;16.30;;;;;;;3.87;53.57;100693.36;127982;1288;99383;-77
2022/04/14 02:09:04;;;;;;;28.80;17.00;;;;;;;3.85;53.44;100693.19;128221;1288;99456;-78
2022/04/14 02:12:09;;;;;;;30.50;18.70;;;;;;;3.83;53.58;100689.59;128249;1288;108840;-78
2022/04/14 02:15:12;;;;;;;31.70;18.00;;;;;;;3.83;53.70;100688.20;128112;1288;108805;-76
2022/04/14 02:18:16;;;;;;;33.90;18.70;;;;;;;3.82;53.82;100690.04;128239;1288;109174;-77
2022/04/14 02:21:18;;;;;;;32.00;18.60;;;;;;;3.78;53.75;100686.93;128356;1288;108716;-76
2022/04/14 02:24:21;;;;;;;32.20;18.90;;;;;;;3.75;53.92;100682.55;128114;1288;99885;-75
2022/04/14 02:27:25;;;;;;;31.30;18.30;;;;;;;3.74;53.95;100683.85;128067;1288;99361;-75
2022/04/14 02:30:28;;;;;;;32.10;18.80;;;;;;;3.71;54.00;100690.01;128002;1288;108864;-75
2022/04/14 02:33:30;;;;;;;32.70;18.10;;;;;;;3.69;54.12;100687.30;128025;1288;99397;-76
2022/04/14 02:36:33;;;;;;;27.80;17.10;;;;;;;3.65;54.24;100688.65;128261;1288;99430;-75
2022/04/14 02:39:36;;;;;;;26.60;16.00;;;;;;;3.61;54.05;100687.29;128348;1288;100442;-75
2022/04/14 02:42:38;;;;;;;28.30;16.00;;;;;;;3.56;54.10;100686.39;128214;1288;99756;-76
2022/04/14 02:45:41;;;;;;;29.20;16.00;;;;;;;3.52;54.28;100683.31;128243;1288;100043;-77
2022/04/14 02:48:44;;;;;;;28.70;16.00;;;;;;;3.47;54.25;100683.44;128000;1288;99672;-75
2022/04/14 02:51:47;;;;;;;28.10;15.50;;;;;;;3.44;54.27;100679.77;128111;1288;99474;-75
2022/04/14 02:54:49;;;;;;;25.40;15.00;;;;;;;3.41;54.33;100681.35;128079;1288;99785;-77
2022/04/14 02:57:52;;;;;;;27.50;15.80;;;;;;;3.39;54.51;100677.81;128164;1288;100547;-75
2022/04/14 03:00:54;;;;;;;26.90;16.00;;;;;;;3.35;54.60;100676.98;128005;1288;99352;-75
2022/04/14 03:03:57;;;;;;;28.30;16.40;;;;;;;3.32;54.53;100674.70;128116;1288;99366;-76
2022/04/14 03:07:00;;;;;;;27.70;17.10;;;;;;;3.28;54.45;100674.24;128261;1288;99474;-75
2022/04/14 03:10:03;;;;;;;27.40;16.40;;;;;;;3.26;54.71;100673.84;128376;1288;99878;-76
2022/04/14 03:13:06;;;;;;;27.70;15.90;;;;;;;3.24;54.76;100675.05;128350;1288;99353;-77
2022/04/14 03:16:08;;;;;;;28.40;16.60;;;;;;;3.23;54.93;100672.14;128337;1288;99823;-78
2022/04/14 03:19:11;;;;;;;28.40;16.90;;;;;;;3.21;54.89;100670.88;128165;1288;100556;-78
2022/04/14 03:22:14;;;;;;;26.70;16.10;;;;;;;3.17;55.03;100667.90;128233;1288;100538;-79
2022/04/14 03:25:16;;;;;;;28.60;16.80;;;;;;;3.13;55.10;100666.54;128123;1288;100558;-78
2022/04/14 03:28:19;;;;;;;33.10;16.00;;;;;;;3.10;55.04;100666.20;128104;1288;99395;-78
2022/04/14 03:31:21;;;;;;;27.80;16.60;;;;;;;3.06;55.15;100664.17;128163;1288;99379;-78
2022/04/14 03:34:24;;;;;;;27.10;16.10;;;;;;;3.04;55.19;100665.55;127862;1289;99335;-76
2022/04/14 03:37:27;;;;;;;26.10;16.00;;;;;;;3.02;55.37;100662.33;128056;1288;99386;-77
2022/04/14 03:40:30;;;;;;;26.70;16.10;;;;;;;3.00;55.22;100658.45;128242;1288;99447;-77
2022/04/14 03:43:33;;;;;;;27.60;16.50;;;;;;;2.97;55.34;100657.53;128166;1288;99392;-77
2022/04/14 03:46:35;;;;;;;29.80;16.50;;;;;;;2.96;55.42;100661.13;128272;1288;99399;-77
2022/04/14 03:49:38;;;;;;;28.50;17.10;;;;;;;2.94;55.41;100656.69;128294;1288;99833;-78
2022/04/14 03:52:41;;;;;;;26.60;15.60;;;;;;;2.91;55.39;100657.00;128422;1288;99404;-78
2022/04/14 03:55:43;;;;;;;28.70;15.80;;;;;;;2.91;55.47;100652.98;128269;1288;113895;-77
2022/04/14 03:58:46;;;;;;;30.00;17.30;;;;;;;2.91;55.53;100652.45;128257;1288;99367;-79
2022/04/14 04:01:49;;;;;;;27.90;15.80;;;;;;;2.92;55.56;100658.38;128299;1288;99390;-75
2022/04/14 04:04:51;;;;;;;26.60;15.40;;;;;;;2.93;55.55;100656.91;128130;1288;100085;-77
2022/04/14 04:07:54;;;;;;;27.80;16.20;;;;;;;2.96;55.66;100658.68;128223;1288;99890;-77
2022/04/14 04:10:57;;;;;;;27.10;15.70;;;;;;;3.00;55.73;100655.11;128342;1288;99457;-76
2022/04/14 04:13:59;;;;;;;30.10;17.20;;;;;;;3.02;55.74;100651.81;128369;1287;99788;-77
2022/04/14 04:17:02;;;;;;;28.20;16.50;;;;;;;3.06;55.83;100648.20;128408;1288;99917;-77
2022/04/14 04:20:06;;;;;;;28.50;16.30;;;;;;;3.14;55.80;100648.41;128049;1288;108805;-78
2022/04/14 04:23:09;;;;;;;28.40;15.80;;;;;;;3.21;55.81;100649.16;128435;1287;108709;-78
2022/04/14 04:26:11;;;;;;;27.80;16.30;;;;;;;3.27;55.93;100645.48;128400;1287;99881;-79
2022/04/14 04:29:14;;;;;;;30.90;17.20;;;;;;;3.34;55.99;100641.86;128516;1287;99389;-77
2022/04/14 04:32:17;;;;;;;31.00;16.90;;;;;;;3.42;56.03;100643.80;128391;1287;99414;-77
2022/04/14 04:35:20;;;;;;;28.80;17.20;;;;;;;3.51;56.02;100635.48;128577;1287;99902;-75
2022/04/14 04:38:22;;;;;;;28.80;17.00;;;;;;;3.60;56.03;100640.23;128492;1287;99384;-77
2022/04/14 04:41:25;;;;;;;29.60;18.70;;;;;;;3.70;56.09;100641.88;128459;1287;99423;-72
2022/04/14 04:44:28;;;;;;;29.30;17.30;;;;;;;3.82;56.24;100639.35;128453;1287;99362;-73
2022/04/14 04:47:30;;;;;;;30.10;17.60;;;;;;;3.95;56.21;100645.70;128314;1287;99365;-73
2022/04/14 04:50:33;;;;;;;28.00;17.00;;;;;;;4.07;56.25;100642.45;128417;1287;99610;-75
2022/04/14 04:53:36;;;;;;;31.80;18.30;;;;;;;4.21;56.38;100632.83;128193;1287;99356;-74
2022/04/14 04:56:38;;;;;;;29.90;18.40;;;;;;;4.36;56.29;100632.56;128339;1286;99688;-75
2022/04/14 04:59:41;;;;;;;29.40;18.90;;;;;;;4.50;56.46;100631.30;128376;1287;100542;-74
2022/04/14 05:02:45;;;;;;;30.70;19.20;;;;;;;4.62;56.29;100625.38;128374;1287;99366;-76
2022/04/14 05:05:48;;;;;;;36.80;23.40;;;;;;;4.73;56.33;100627.39;128308;1287;99420;-75
2022/04/14 05:08:50;;;;;;;40.00;25.70;;;;;;;4.83;56.50;100627.63;128459;1287;99384;-75
2022/04/14 05:11:53;;;;;;;37.20;23.10;;;;;;;4.94;56.43;100626.30;128533;1287;99385;-75
2022/04/14 05:14:57;;;;;;;37.00;22.80;;;;;;;5.06;56.56;100626.72;128769;1287;99379;-75
2022/04/14 05:17:59;;;;;;;31.20;19.90;;;;;;;5.20;56.59;100620.04;128376;1288;99385;-75
2022/04/14 05:21:02;;;;;;;32.70;21.10;;;;;;;5.34;56.63;100612.18;128394;1288;99964;-75
2022/04/14 05:24:07;;;;;;;33.80;22.50;;;;;;;5.49;56.50;100613.09;128350;1288;99448;-74
2022/04/14 05:27:09;;;;;;;32.90;21.50;;;;;;;5.61;56.58;100616.92;128363;1288;100541;-74
2022/04/14 05:30:12;;;;;;;33.80;21.40;;;;;;;5.77;56.49;100617.70;128300;1288;100028;-73
2022/04/14 05:33:15;;;;;;;33.60;21.60;;;;;;;5.93;56.29;100617.62;128121;1288;99394;-73
2022/04/14 05:36:17;;;;;;;36.20;21.70;;;;;;;6.08;56.33;100616.70;128150;1288;100554;-73
2022/04/14 05:39:20;;;;;;;30.20;20.00;;;;;;;6.23;56.45;100608.63;128257;1288;100660;-73
2022/04/14 05:42:23;;;;;;;28.40;18.40;;;;;;;6.39;56.31;100604.29;128254;1288;99476;-73
2022/04/14 05:45:26;;;;;;;28.50;17.90;;;;;;;6.54;56.14;100603.48;128403;1288;99459;-73
2022/04/14 05:48:29;;;;;;;25.20;17.00;;;;;;;6.70;56.01;100601.17;128332;1288;99812;-74
2022/04/14 05:51:32;;;;;;;27.60;16.80;;;;;;;6.85;56.03;100600.73;128089;1288;100640;-72
2022/04/14 05:54:34;;;;;;;27.40;16.70;;;;;;;6.96;55.96;100596.11;128280;1288;99420;-72
2022/04/14 05:57:37;;;;;;;26.30;16.80;;;;;;;7.09;55.66;100592.85;128229;1288;99451;-73
2022/04/14 06:00:40;;;;;;;24.60;15.90;;;;;;;7.21;55.79;100592.02;128359;1288;99818;-73
2022/04/14 06:03:43;;;;;;;25.80;16.90;;;;;;;7.32;55.78;100590.23;128040;1287;99419;-75
2022/04/14 06:06:45;;;;;;;21.90;14.70;;;;;;;7.45;55.71;100588.17;128272;1288;99458;-73
2022/04/14 06:09:48;;;;;;;20.70;13.70;;;;;;;7.57;55.82;100587.16;128150;1288;99415;-74
2022/04/14 06:12:51;;;;;;;20.00;13.30;;;;;;;7.70;55.54;100592.34;128047;1288;99450;-73
2022/04/14 06:15:54;;;;;;;18.30;12.30;;;;;;;7.84;55.62;100594.00;128322;1288;99369;-74
2022/04/14 06:18:57;;;;;;;22.50;12.50;;;;;;;7.97;55.56;100592.36;128098;1288;99399;-74
2022/04/14 06:21:59;;;;;;;22.10;12.40;;;;;;;8.11;55.35;100586.98;128051;1288;99389;-72
2022/04/14 06:25:02;;;;;;;19.60;11.70;;;;;;;8.23;55.21;100583.83;128199;1288;99463;-72
2022/04/14 06:28:07;;;;;;;18.60;11.70;;;;;;;8.33;54.98;100577.11;128172;1288;99466;-74
2022/04/14 06:31:10;;;;;;;18.70;11.50;;;;;;;8.45;54.83;100575.41;128056;1288;100606;-73
2022/04/14 06:34:12;;;;;;;20.70;12.00;;;;;;;8.57;54.46;100575.10;128048;1288;99383;-74
2022/04/14 06:37:15;;;;;;;20.00;11.20;;;;;;;8.70;54.57;100571.02;128035;1288;101577;-73
2022/04/14 06:40:18;;;;;;;17.90;11.70;;;;;;;8.82;54.29;100577.19;127827;1290;99402;-74
2022/04/14 06:43:21;;;;;;;17.30;11.30;;;;;;;8.95;54.09;100576.23;128057;1288;100646;-74
2022/04/14 06:46:25;;;;;;;17.90;11.10;;;;;;;9.10;54.17;100573.91;128307;1288;99890;-75
2022/04/14 06:49:28;;;;;;;15.50;10.20;;;;;;;9.22;54.19;100574.03;128130;1288;99402;-74
2022/04/14 06:52:30;;;;;;;16.60;10.40;;;;;;;9.38;54.18;100571.04;128193;1288;100577;-73
2022/04/14 06:55:35;;;;;;;15.40;9.80;;;;;;;9.55;54.35;100569.02;128153;1288;99480;-73
2022/04/14 06:58:37;;;;;;;15.40;9.70;;;;;;;9.71;54.02;100563.27;128343;1288;99374;-75
2022/04/14 07:01:40;;;;;;;14.70;9.00;;;;;;;9.85;53.61;100555.92;128105;1288;99414;-75
2022/04/14 07:04:43;;;;;;;14.00;8.80;;;;;;;9.99;53.30;100557.66;128010;1288;100533;-75
2022/04/14 07:07:46;;;;;;;24.20;14.30;;;;;;;10.13;52.86;100551.55;128052;1288;100554;-74
2022/04/14 07:10:48;;;;;;;79.90;40.10;;;;;;;10.27;53.10;100548.14;128144;1288;100001;-75
2022/04/14 07:13:51;;;;;;;24.30;14.30;;;;;;;10.42;52.66;100545.76;128096;1288;99378;-74
2022/04/14 07:16:54;;;;;;;15.70;9.30;;;;;;;10.54;52.45;100547.11;128025;1288;99369;-73
2022/04/14 07:19:58;;;;;;;15.60;9.60;;;;;;;10.67;52.28;100547.77;128089;1288;99500;-77
2022/04/14 07:23:02;;;;;;;19.00;10.80;;;;;;;10.81;51.35;100549.35;128123;1288;99404;-76
2022/04/14 07:26:05;;;;;;;15.70;9.00;;;;;;;10.91;51.93;100554.95;128181;1288;100092;-76
2022/04/14 07:29:08;;;;;;;15.20;8.40;;;;;;;11.00;51.54;100551.33;128382;1288;99375;-76
2022/04/14 07:32:10;;;;;;;13.60;8.00;;;;;;;11.10;51.62;100550.24;128416;1288;99417;-77
2022/04/14 07:35:14;;;;;;;12.90;7.70;;;;;;;11.19;51.53;100548.27;128388;1288;99331;-77
2022/04/14 07:38:16;;;;;;;11.50;8.10;;;;;;;11.30;51.62;100551.52;128196;1288;99362;-78
2022/04/14 07:41:19;;;;;;;13.40;8.30;;;;;;;11.41;51.12;100550.59;128113;1288;99376;-76
2022/04/14 07:44:21;;;;;;;14.00;8.10;;;;;;;11.51;50.87;100551.92;128430;1288;99498;-75
2022/04/14 07:47:25;;;;;;;12.10;7.70;;;;;;;11.60;50.26;100553.01;128528;1288;99381;-77
2022/04/14 07:50:27;;;;;;;13.10;7.80;;;;;;;11.69;50.45;100554.96;128288;1288;100538;-78
2022/04/14 07:53:30;;;;;;;13.10;7.70;;;;;;;11.80;50.66;100545.30;128523;1288;99392;-80
2022/04/14 07:56:33;;;;;;;10.50;7.60;;;;;;;11.92;50.44;100545.55;128430;1288;99365;-81
2022/04/14 07:59:36;;;;;;;13.00;7.80;;;;;;;12.04;50.47;100545.79;128219;1288;113667;-75
2022/04/14 08:02:47;;;;;;;12.60;7.70;;;;;;;12.15;50.07;100538.23;128194;1287;99382;-78
2022/04/14 08:05:50;;;;;;;12.20;7.40;;;;;;;12.28;50.21;100539.63;128428;1288;113735;-78
2022/04/14 08:08:53;;;;;;;12.40;7.80;;;;;;;12.40;49.99;100532.50;128081;1288;99322;-77
2022/04/14 08:11:56;;;;;;;9.60;7.10;;;;;;;12.51;49.54;100531.87;128226;1288;99316;-77
2022/04/14 08:14:58;;;;;;;10.60;7.30;;;;;;;12.60;49.68;100532.74;128099;1288;99377;-78
2022/04/14 08:18:02;;;;;;;12.50;7.00;;;;;;;12.68;49.22;100532.68;128465;1287;99795;-77
2022/04/14 08:21:05;;;;;;;12.60;7.30;;;;;;;12.76;49.53;100530.17;128431;1288;99386;-75
2022/04/14 08:24:08;;;;;;;16.00;8.00;;;;;;;12.87;49.30;100530.24;128150;1288;99341;-76
2022/04/14 08:27:11;;;;;;;11.40;7.00;;;;;;;13.02;49.11;100528.04;128441;1288;99385;-75
2022/04/14 08:30:15;;;;;;;11.00;6.80;;;;;;;13.14;48.73;100527.84;128450;1288;99366;-77
2022/04/14 08:33:20;;;;;;;11.50;7.00;;;;;;;13.26;48.82;100530.09;128322;1288;114879;-76
2022/04/14 08:36:23;;;;;;;10.60;7.00;;;;;;;13.40;48.77;100529.23;128369;1288;113887;-76
2022/04/14 08:39:29;;;;;;;11.20;7.00;;;;;;;13.53;48.25;100530.67;128234;1288;99360;-74
2022/04/14 08:42:38;;;;;;;10.30;7.50;;;;;;;13.66;48.61;100529.38;128395;1288;112719;-73
2022/04/14 08:45:47;;;;;;;8.90;7.10;;;;;;;13.84;48.30;100525.12;128194;1288;113893;-74
2022/04/14 08:48:51;;;;;;;11.90;7.20;;;;;;;13.98;48.15;100521.46;128293;1288;113694;-73
2022/04/14 08:51:55;;;;;;;9.90;6.80;;;;;;;14.11;48.14;100515.35;128234;1288;119597;-74
2022/04/14 08:54:58;;;;;;;9.10;6.00;;;;;;;14.26;47.62;100516.30;128268;1288;113775;-74
2022/04/14 08:58:01;;;;;;;10.10;6.70;;;;;;;14.39;47.33;100511.91;128292;1288;113658;-74
2022/04/14 09:01:05;;;;;;;8.80;6.90;;;;;;;14.51;47.65;100509.66;128094;1287;99355;-74
2022/04/14 09:04:09;;;;;;;9.70;6.30;;;;;;;14.65;47.58;100509.08;128219;1288;113715;-74
2022/04/14 09:07:12;;;;;;;10.80;6.50;;;;;;;14.80;47.56;100504.45;128209;1288;112878;-74
2022/04/14 09:10:14;;;;;;;9.10;6.50;;;;;;;14.98;47.28;100511.41;128207;1288;113727;-74
2022/04/14 09:13:18;;;;;;;10.20;6.40;;;;;;;15.14;47.04;100505.64;128283;1288;99973;-73
2022/04/14 09:16:21;;;;;;;8.00;6.40;;;;;;;15.31;46.70;100501.35;128195;1288;99422;-74
2022/04/14 09:19:25;;;;;;;10.00;6.80;;;;;;;15.51;46.93;100496.34;128173;1288;113588;-74
2022/04/14 09:22:28;;;;;;;10.50;7.00;;;;;;;15.71;47.10;100488.02;128143;1288;113788;-75
2022/04/14 09:25:30;;;;;;;10.90;6.90;;;;;;;15.94;46.77;100487.04;128260;1288;99440;-74
2022/04/14 09:28:33;;;;;;;11.30;7.00;;;;;;;16.18;46.70;100477.38;128117;1288;99373;-75
2022/04/14 09:31:48;;;;;;;12.60;7.60;;;;;;;16.41;46.49;100471.91;128167;1288;99479;-74
2022/04/14 09:34:51;;;;;;;10.60;7.60;;;;;;;16.62;46.20;100463.73;128414;1288;113616;-74
2022/04/14 09:38:01;;;;;;;10.50;7.00;;;;;;;16.81;46.04;100460.55;128193;1288;112875;-75
2022/04/14 09:41:29;;;;;;;11.90;7.30;;;;;;;17.01;45.76;100455.92;128672;1288;113842;-75
2022/04/14 09:44:32;;;;;;;11.30;7.90;;;;;;;17.17;45.31;100457.13;128244;1290;119847;-73
2022/04/14 09:47:40;;;;;;;13.20;8.20;;;;;;;17.30;45.12;100453.44;128180;1288;99468;-74
2022/04/14 09:50:47;;;;;;;13.10;7.80;;;;;;;17.45;45.17;100449.64;128326;1287;113869;-74
2022/04/14 09:53:50;;;;;;;12.90;8.40;;;;;;;17.58;44.98;100448.88;127837;1290;113764;-75
2022/04/14 09:56:55;;;;;;;11.30;8.10;;;;;;;17.67;45.28;100451.95;128199;1288;99379;-74
2022/04/14 09:59:57;;;;;;;12.40;8.40;;;;;;;17.71;44.89;100447.16;128055;1288;113693;-74
2022/04/14 10:03:10;;;;;;;13.60;8.70;;;;;;;17.73;44.75;100449.26;127835;1290;99367;-74
2022/04/14 10:06:13;;;;;;;13.80;8.50;;;;;;;17.75;44.53;100444.48;128097;1288;113711;-75
2022/04/14 10:09:28;;;;;;;13.70;9.00;;;;;;;17.79;44.12;100437.06;127943;1291;100436;-74
2022/04/14 10:12:31;;;;;;;13.40;9.00;;;;;;;17.83;43.96;100438.67;128074;1288;112741;-75
2022/04/14 10:15:36;;;;;;;12.90;8.50;;;;;;;17.88;44.24;100430.42;127932;1290;114663;-74
2022/04/14 10:24:08;;;;;;;15.30;10.30;;;;;;;18.03;43.98;100416.94;128125;1288;114227;-73
2022/04/14 10:27:12;;;;;;;15.60;10.10;;;;;;;18.11;44.10;100414.99;128246;1288;112918;-73
2022/04/14 10:30:19;;;;;;;21.60;11.30;;;;;;;18.17;43.80;100412.38;128269;1287;113824;-75
2022/04/14 10:33:23;;;;;;;17.00;10.60;;;;;;;18.21;43.63;100411.31;128089;1288;113876;-73
2022/04/14 10:36:25;;;;;;;15.60;10.60;;;;;;;18.26;43.21;100406.15;128203;1288;112534;-73
2022/04/14 10:39:31;;;;;;;16.40;11.20;;;;;;;18.34;43.41;100402.07;128140;1288;101312;-73
2022/04/14 10:42:35;;;;;;;17.10;10.60;;;;;;;18.41;42.85;100396.88;128219;1288;113679;-73
2022/04/14 10:45:49;;;;;;;17.50;10.90;;;;;;;18.51;43.06;100391.55;128173;1288;113578;-73
2022/04/14 10:49:12;;;;;;;18.00;10.90;;;;;;;18.64;43.09;100394.21;128189;1288;112774;-73
2022/04/14 10:52:25;;;;;;;15.40;10.60;;;;;;;18.78;42.96;100387.08;128152;1288;113431;-74
2022/04/14 10:55:36;;;;;;;17.60;11.20;;;;;;;18.91;42.45;100384.30;128255;1288;113734;-74
2022/04/14 10:58:54;;;;;;;19.90;11.20;;;;;;;19.01;42.28;100377.90;128286;1288;113726;-74
2022/04/14 11:02:02;;;;;;;17.50;11.60;;;;;;;19.11;42.18;100374.89;127940;1290;113915;-74
2022/04/14 11:05:06;;;;;;;15.20;10.10;;;;;;;19.24;42.41;100365.80;128020;1288;113876;-74
2022/04/14 11:08:26;;;;;;;19.90;10.70;;;;;;;19.36;41.99;100364.17;127941;1290;114519;-74
2022/04/14 11:11:29;;;;;;;16.20;10.80;;;;;;;19.48;41.98;100360.17;127898;1290;113978;-74
2022/04/14 11:14:35;;;;;;;15.30;10.70;;;;;;;19.59;41.98;100362.66;127935;1289;99539;-76
2022/04/14 11:18:03;;;;;;;14.00;9.70;;;;;;;19.71;41.66;100361.12;127841;1290;113727;-74
2022/04/14 11:21:06;;;;;;;15.70;10.40;;;;;;;19.86;41.46;100358.52;128246;1290;113838;-74
2022/04/14 11:24:14;;;;;;;17.00;10.70;;;;;;;19.99;41.26;100358.54;128377;1288;99376;-74
2022/04/14 11:27:21;;;;;;;15.70;9.60;;;;;;;20.09;41.16;100359.35;128383;1288;113649;-75
2022/04/14 11:30:40;;;;;;;15.40;10.00;;;;;;;20.19;41.29;100353.39;128379;1288;113838;-75
2022/04/14 11:33:45;;;;;;;15.50;10.40;;;;;;;20.31;40.79;100352.59;128149;1290;113840;-75
2022/04/14 11:36:50;;;;;;;14.30;9.50;;;;;;;20.40;40.78;100350.05;128015;1290;113743;-75
2022/04/14 11:40:11;;;;;;;13.30;9.40;;;;;;;20.47;40.09;100348.17;128011;1290;113946;-75
2022/04/14 11:43:14;;;;;;;14.30;9.90;;;;;;;20.51;40.18;100339.73;127876;1290;113700;-74
2022/04/14 11:46:18;;;;;;;14.90;9.70;;;;;;;20.54;40.23;100336.81;127906;1290;113850;-75
2022/04/14 11:49:22;;;;;;;13.70;9.60;;;;;;;20.57;39.85;100330.53;127875;1289;99510;-75
2022/04/14 11:52:25;;;;;;;13.70;9.60;;;;;;;20.59;39.51;100330.31;128149;1288;113739;-75
2022/04/14 11:55:38;;;;;;;13.70;9.80;;;;;;;20.62;39.54;100324.99;128355;1288;113818;-75
2022/04/14 11:58:42;;;;;;;14.80;9.40;;;;;;;20.68;39.67;100322.04;128542;1288;113490;-75
2022/04/14 12:01:49;;;;;;;12.50;8.00;;;;;;;20.72;39.42;100318.28;128190;1288;113743;-75
2022/04/14 12:04:53;;;;;;;12.80;8.60;;;;;;;20.80;39.51;100309.48;128227;1290;113807;-77
2022/04/14 12:08:07;;;;;;;11.80;8.30;;;;;;;20.85;39.18;100308.20;128252;1290;113856;-78
2022/04/14 12:11:16;;;;;;;13.10;9.30;;;;;;;20.91;39.05;100311.83;128150;1288;113731;-77
2022/04/14 12:14:19;;;;;;;13.60;8.70;;;;;;;20.94;39.05;100299.95;128256;1289;113642;-77
2022/04/14 12:17:24;;;;;;;12.70;8.40;;;;;;;20.98;38.87;100300.34;128368;1288;113887;-77
2022/04/14 12:20:36;;;;;;;12.50;8.40;;;;;;;21.04;39.04;100299.88;128233;1288;113698;-77
2022/04/14 12:23:47;;;;;;;11.50;7.30;;;;;;;21.07;38.37;100299.21;128176;1288;290032;-77
2022/04/14 12:26:50;;;;;;;9.20;6.90;;;;;;;21.07;38.21;100292.05;128207;1288;113756;-77
2022/04/14 12:29:54;;;;;;;9.90;7.60;;;;;;;21.09;38.42;100295.61;128267;1288;99364;-77
2022/04/14 12:33:02;;;;;;;10.50;7.10;;;;;;;21.12;38.19;100299.19;128241;1288;113888;-77
2022/04/14 12:36:09;;;;;;;10.20;6.50;;;;;;;21.14;37.95;100291.19;128287;1288;113902;-77
2022/04/14 12:39:20;;;;;;;7.70;5.90;;;;;;;21.15;37.81;100288.09;128248;1288;113061;-78
2022/04/14 12:42:26;;;;;;;9.80;6.80;;;;;;;21.18;37.82;100289.69;128219;1288;113943;-77
2022/04/14 12:45:37;;;;;;;7.80;6.50;;;;;;;21.19;37.72;100289.19;128162;1288;113914;-77
2022/04/14 12:48:40;;;;;;;8.40;6.90;;;;;;;21.17;37.46;100287.34;128263;1288;113738;-77
2022/04/14 12:51:51;;;;;;;9.60;7.20;;;;;;;21.14;37.80;100281.65;128217;1288;99472;-77
2022/04/14 12:54:54;;;;;;;8.80;6.80;;;;;;;21.12;37.42;100280.55;128199;1288;112443;-78
2022/04/14 12:58:10;;;;;;;10.90;7.20;;;;;;;21.10;37.48;100282.27;128178;1288;112683;-77
2022/04/14 13:01:13;;;;;;;9.20;7.00;;;;;;;21.06;37.09;100273.52;128308;1288;113691;-77
2022/04/14 13:04:15;;;;;;;9.40;7.20;;;;;;;21.00;37.24;100268.58;128248;1288;100541;-78
2022/04/14 13:07:18;;;;;;;10.60;7.00;;;;;;;20.94;37.17;100263.11;128333;1287;99498;-74
2022/04/14 13:10:26;;;;;;;10.50;7.20;;;;;;;20.85;37.10;100256.79;128420;1287;99801;-76
2022/04/14 13:13:33;;;;;;;10.40;7.60;;;;;;;20.74;36.72;100248.77;128448;1288;119826;-74
2022/04/14 13:16:36;;;;;;;9.80;7.30;;;;;;;20.62;36.77;100247.29;128290;1288;113646;-77
2022/04/14 13:19:40;;;;;;;11.90;7.90;;;;;;;20.53;36.91;100243.80;128437;1287;99363;-78
2022/04/14 13:22:44;;;;;;;12.80;8.90;;;;;;;20.45;36.85;100241.31;128456;1288;113955;-77
2022/04/14 13:25:48;;;;;;;14.60;11.20;;;;;;;20.38;36.65;100236.73;128274;1287;114174;-80
2022/04/14 13:28:51;;;;;;;11.10;7.80;;;;;;;20.31;36.89;100236.44;128453;1287;113844;-77
2022/04/14 13:31:53;;;;;;;12.50;7.20;;;;;;;20.25;36.99;100227.73;128482;1287;99465;-77
2022/04/14 13:34:56;;;;;;;10.90;7.30;;;;;;;20.21;36.99;100222.50;128499;1287;99373;-78
2022/04/14 13:37:59;;;;;;;12.30;9.10;;;;;;;20.18;36.90;100223.30;128407;1287;100541;-78
2022/04/14 13:41:01;;;;;;;14.50;9.30;;;;;;;20.14;37.04;100221.81;128507;1287;99471;-77
2022/04/14 13:44:05;;;;;;;15.70;10.50;;;;;;;20.09;36.92;100226.69;128389;1287;100635;-77
2022/04/14 13:47:08;;;;;;;15.50;10.10;;;;;;;20.05;36.92;100228.05;128304;1287;100541;-78
2022/04/14 13:50:12;;;;;;;17.50;11.00;;;;;;;20.01;37.22;100221.02;128269;1287;99568;-77
2022/04/14 13:53:16;;;;;;;14.00;10.40;;;;;;;19.97;36.74;100217.75;128413;1287;99415;-77
2022/04/14 13:56:18;;;;;;;14.40;10.20;;;;;;;19.94;37.06;100217.85;128396;1287;113833;-77